KMHT/MHT METAR and TAF weather

Enter ICAO airport designator
Station Type Date Time Source
KMHT METAR 2019/06/19 02:53 UTC NOAA

KMHT 190253Z 00000KT 10SM SCT021 BKN250 18/17 A2990 RMK AO2 SLP135 T01830167 53003


Station Type Date Time Source
KMHT Decoded METAR 2019/06/19 02:53 UTC NOAA

MANCHESTER AIRPORT, NH, United States (KMHT) 42-56N 071-26W 81M
Jun 18, 2019 - 10:53 PM EDT / 2019.06.19 0253 UTC
Wind: Calm:0
Visibility: 10 mile(s):0
Sky conditions: mostly cloudy
Temperature: 64.9 F (18.3 C)
Dew Point: 62.1 F (16.7 C)
Relative Humidity: 90%
Pressure (altimeter): 29.9 in. Hg (1012 hPa)
Pressure tendency: 0.01 inches (0.3 hPa) higher than three hours ago
ob: KMHT 190253Z 00000KT 10SM SCT021 BKN250 18/17 A2990 RMK AO2 SLP135 T01830167 53003
cycle: 3

Station Type Date Time Source
KMHT TAF 2019/06/19 02:57 UTC NOAA

TAF
AMD KMHT 190156Z 1902/1924 VRB04KT P6SM BKN015
FM190400 00000KT P6SM BKN008
FM191600 VRB03KT P6SM BKN020
FM191900 15005KT P6SM BKN035

Example: see airport list